Allensville, Pennsylvania
Current Conditions -  °F | °C
As of 5:53 PM on Saturday 22 Nov 2014 (Local Time) from KUNV Reporting Station
Overcast Overcast  
Wind Chill: 34°   Ceiling: 4000
Heat Index: 34°   Visibility: 10mi
Dew Point: 25°   Wind: 0mph
Humidity: 70%   Direction: NA
Pressure: 30.17"   Gusts: NA
Location:  40.54°N, 77.82°W
Report Text: KUNV 222253Z 00000KT 10SM OVC040 01/M04 A3017
Loading
Personal Weather Stations






























Interactive Weather Map New forecast layout! Learn more

10-Day Weather Forecast

Advertisements
Track Severe Weather on mobile